createdAt,value
2022-10-17T00:00:40.673Z,4.38
2022-10-17T00:05:46.515Z,4.30
2022-10-17T00:11:00.837Z,4.53
2022-10-17T00:16:03.413Z,4.32
2022-10-17T00:21:06.529Z,4.63
2022-10-17T00:26:10.316Z,4.28
2022-10-17T00:31:13.118Z,3.63
2022-10-17T00:36:19.072Z,4.30
2022-10-17T00:41:24.877Z,4.30
2022-10-17T00:46:30.455Z,4.32
2022-10-17T00:51:45.386Z,4.68
2022-10-17T00:56:48.806Z,4.20
2022-10-17T01:02:01.385Z,4.57
2022-10-17T01:07:03.970Z,4.60
2022-10-17T01:12:20.144Z,3.90
2022-10-17T01:17:31.853Z,4.13
2022-10-17T01:22:57.357Z,3.70
2022-10-17T01:28:30.556Z,4.55
2022-10-17T01:33:38.272Z,4.13
2022-10-17T01:38:50.646Z,3.90
2022-10-17T01:44:03.747Z,3.88
2022-10-17T01:49:10.340Z,3.75
2022-10-17T01:54:24.721Z,4.38
2022-10-17T01:59:41.338Z,3.72
2022-10-17T02:04:45.029Z,4.10
2022-10-17T02:09:47.666Z,5.43
2022-10-17T02:15:08.475Z,4.90
2022-10-17T02:25:46.507Z,3.63
2022-10-17T02:30:58.173Z,3.95
2022-10-17T02:36:06.306Z,4.18
2022-10-17T02:41:12.776Z,3.88
2022-10-17T02:46:21.275Z,4.03
2022-10-17T02:51:56.465Z,3.55
2022-10-17T02:57:18.733Z,3.78
2022-10-17T03:02:21.596Z,4.03
2022-10-17T03:07:24.225Z,4.47
2022-10-17T03:12:27.142Z,3.90
2022-10-17T03:17:29.984Z,4.03
2022-10-17T03:22:32.840Z,3.40
2022-10-17T03:27:38.025Z,3.88
2022-10-17T03:32:40.809Z,4.40
2022-10-17T03:37:44.183Z,3.40
2022-10-17T03:42:46.777Z,3.97
2022-10-17T03:47:49.590Z,3.53
2022-10-17T03:52:52.286Z,4.68
2022-10-17T03:57:55.157Z,4.15
2022-10-17T04:02:59.140Z,4.32
2022-10-17T04:08:04.738Z,4.95
2022-10-17T04:13:26.392Z,4.28
2022-10-17T04:18:29.269Z,4.25
2022-10-17T04:23:32.933Z,5.55
2022-10-17T04:28:44.279Z,5.70
2022-10-17T04:33:48.102Z,4.57
2022-10-17T04:38:50.901Z,4.75
2022-10-17T04:43:55.106Z,4.72
2022-10-17T04:48:58.472Z,4.25
2022-10-17T04:54:01.273Z,6.38
2022-10-17T04:59:04.646Z,4.40
2022-10-17T05:04:07.991Z,4.53
2022-10-17T05:09:11.215Z,4.13
2022-10-17T05:14:13.835Z,4.30
2022-10-17T05:19:17.319Z,4.05
2022-10-17T05:24:23.288Z,4.80
2022-10-17T05:29:26.584Z,5.35
2022-10-17T05:34:38.357Z,7.65
2022-10-17T05:39:41.317Z,5.75
2022-10-17T05:44:45.562Z,4.47
2022-10-17T05:49:52.503Z,4.72
2022-10-17T05:55:06.505Z,4.30
2022-10-17T06:00:10.006Z,5.15
2022-10-17T06:05:21.364Z,4.72
2022-10-17T06:10:24.240Z,4.50
2022-10-17T06:15:26.944Z,4.38
2022-10-17T06:20:45.253Z,10.00
2022-10-17T06:25:51.498Z,4.75
2022-10-17T06:30:54.289Z,4.55
2022-10-17T06:35:57.766Z,4.78
2022-10-17T06:41:09.122Z,5.05
2022-10-17T06:46:12.596Z,5.88
2022-10-17T06:51:27.668Z,5.35
2022-10-17T06:56:32.676Z,6.22
2022-10-17T07:01:55.917Z,5.15
2022-10-17T07:07:03.203Z,4.75
2022-10-17T07:12:08.643Z,4.72
2022-10-17T07:17:13.457Z,5.00
2022-10-17T07:22:17.705Z,5.15
2022-10-17T07:27:23.335Z,4.70
2022-10-17T07:32:26.861Z,4.78
2022-10-17T07:37:30.001Z,5.05
2022-10-17T07:42:42.399Z,5.63
2022-10-17T07:47:46.341Z,5.53
2022-10-17T07:52:51.491Z,5.25
2022-10-17T07:57:54.113Z,6.45
2022-10-17T08:02:56.745Z,5.80
2022-10-17T08:08:00.062Z,6.10
2022-10-17T08:13:03.265Z,6.63
2022-10-17T08:18:05.891Z,6.63
2022-10-17T08:23:08.831Z,7.00
2022-10-17T08:28:11.376Z,6.78
2022-10-17T08:33:13.955Z,6.53
2022-10-17T08:38:20.018Z,6.55
2022-10-17T08:44:03.055Z,6.82
2022-10-17T08:49:20.922Z,7.63
2022-10-17T08:54:39.052Z,6.85
2022-10-17T08:59:43.836Z,7.30
2022-10-17T09:05:08.134Z,7.10
2022-10-17T09:10:27.560Z,6.50
2022-10-17T09:15:49.876Z,7.35
2022-10-17T09:26:01.789Z,8.05
2022-10-17T09:31:22.688Z,8.68
2022-10-17T09:36:34.785Z,7.35
2022-10-17T09:47:04.252Z,8.53
2022-10-17T09:52:19.963Z,7.72
2022-10-17T09:57:22.755Z,8.43
2022-10-17T10:02:27.392Z,8.10
2022-10-17T10:07:35.720Z,8.32
2022-10-17T10:12:39.633Z,7.95
2022-10-17T10:17:42.827Z,8.32
2022-10-17T10:22:46.283Z,7.13
2022-10-17T10:27:48.990Z,7.90
2022-10-17T10:32:52.061Z,7.47
2022-10-17T10:37:57.729Z,8.43
2022-10-17T10:43:05.345Z,8.13
2022-10-17T10:48:30.910Z,8.60
2022-10-17T10:53:57.072Z,7.57
2022-10-17T10:59:19.384Z,8.00
2022-10-17T11:04:40.341Z,8.10
2022-10-17T11:10:00.350Z,8.50
2022-10-17T11:15:32.839Z,7.90
2022-10-17T11:20:53.605Z,8.73
2022-10-17T11:26:02.842Z,8.73
2022-10-17T11:31:13.507Z,9.18
2022-10-17T11:36:19.903Z,8.45
2022-10-17T11:41:55.443Z,9.68
2022-10-17T11:47:03.839Z,9.88
2022-10-17T11:57:56.838Z,10.00
2022-10-17T12:03:11.010Z,10.25
2022-10-17T12:08:50.541Z,10.30
2022-10-17T12:13:55.247Z,10.32
2022-10-17T12:19:00.614Z,10.55
2022-10-17T12:24:03.264Z,10.65
2022-10-17T12:29:32.574Z,9.23
2022-10-17T12:34:35.270Z,11.20
2022-10-17T12:39:37.869Z,11.00
2022-10-17T12:44:40.527Z,11.60
2022-10-17T12:49:45.636Z,10.70
2022-10-17T12:55:24.713Z,10.85
2022-10-17T13:00:59.527Z,10.48
2022-10-17T13:06:13.777Z,11.02
2022-10-17T13:11:16.466Z,12.18
2022-10-17T13:16:40.278Z,11.07
2022-10-17T13:22:01.084Z,11.02
2022-10-17T13:27:28.765Z,11.43
2022-10-17T13:32:40.814Z,11.32
2022-10-17T13:37:50.253Z,11.23
2022-10-17T13:42:57.896Z,12.02
2022-10-17T13:48:04.523Z,11.90
2022-10-17T13:53:13.231Z,11.93
2022-10-17T13:58:17.575Z,11.70
2022-10-17T14:03:22.291Z,10.90
2022-10-17T14:08:25.272Z,11.77
2022-10-17T14:13:33.829Z,12.00
2022-10-17T14:18:37.657Z,11.75
2022-10-17T14:23:43.594Z,13.23
2022-10-17T14:29:04.384Z,13.30
2022-10-17T14:34:07.096Z,13.25
2022-10-17T14:39:21.031Z,12.98
2022-10-17T14:44:29.076Z,13.07
2022-10-17T14:49:33.333Z,12.07
2022-10-17T14:54:37.605Z,13.05
2022-10-17T14:59:53.801Z,12.65
2022-10-17T15:04:57.143Z,12.65
2022-10-17T15:10:00.057Z,12.93
2022-10-17T15:15:02.740Z,12.73
2022-10-17T15:20:14.327Z,13.23
2022-10-17T15:25:16.944Z,13.10
2022-10-17T15:30:32.468Z,13.68
2022-10-17T15:35:37.102Z,13.18
2022-10-17T15:40:41.650Z,13.63
2022-10-17T15:45:44.248Z,12.77
2022-10-17T15:50:46.920Z,11.10
2022-10-17T15:55:51.065Z,13.23
2022-10-17T16:00:53.915Z,12.65
2022-10-17T16:05:57.146Z,13.13
2022-10-17T16:10:59.728Z,12.48
2022-10-17T16:16:02.273Z,12.90
2022-10-17T16:21:05.045Z,11.80
2022-10-17T16:26:07.817Z,11.68
2022-10-17T16:31:31.335Z,10.85
2022-10-17T16:36:34.477Z,12.45
2022-10-17T16:41:39.421Z,12.48
2022-10-17T16:46:42.062Z,12.82
2022-10-17T16:51:44.754Z,12.27
2022-10-17T16:56:47.478Z,12.75
2022-10-17T17:01:50.541Z,11.82
2022-10-17T17:06:53.205Z,12.32
2022-10-17T17:11:55.767Z,12.52
2022-10-17T17:16:58.375Z,12.95
2022-10-17T17:22:01.057Z,12.48
2022-10-17T17:27:03.641Z,11.73
2022-10-17T17:32:06.331Z,12.38
2022-10-17T17:37:08.932Z,11.82
2022-10-17T17:42:14.960Z,13.02
2022-10-17T17:47:20.738Z,12.32
2022-10-17T17:52:23.307Z,11.63
2022-10-17T17:57:25.945Z,12.75
2022-10-17T18:02:28.780Z,12.25
2022-10-17T18:07:31.640Z,12.45
2022-10-17T18:12:37.361Z,12.75
2022-10-17T18:17:40.191Z,12.57
2022-10-17T18:22:42.848Z,11.95
2022-10-17T18:27:48.067Z,12.40
2022-10-17T18:32:51.101Z,11.95
2022-10-17T18:37:56.565Z,13.60
2022-10-17T18:42:59.227Z,11.50
2022-10-17T18:48:01.919Z,12.63
2022-10-17T18:53:05.130Z,13.00
2022-10-17T18:58:07.730Z,12.65
2022-10-17T19:03:10.580Z,12.73
2022-10-17T19:08:15.104Z,13.00
2022-10-17T19:13:21.479Z,12.15
2022-10-17T19:18:24.461Z,12.30
2022-10-17T19:23:27.051Z,13.15
2022-10-17T19:28:29.806Z,12.38
2022-10-17T19:33:32.943Z,12.48
2022-10-17T19:38:36.557Z,13.68
2022-10-17T19:43:40.913Z,15.98
2022-10-17T19:48:44.512Z,13.80
2022-10-17T19:53:47.669Z,13.00
2022-10-17T19:58:51.185Z,13.57
2022-10-17T20:03:54.527Z,14.52
2022-10-17T20:08:57.304Z,14.70
2022-10-17T20:14:01.900Z,13.57
2022-10-17T20:19:08.776Z,14.23
2022-10-17T20:24:14.847Z,13.93
2022-10-17T20:29:20.188Z,13.48
2022-10-17T20:34:22.996Z,12.95
2022-10-17T20:39:25.676Z,13.25
2022-10-17T20:44:28.259Z,12.70
2022-10-17T20:49:31.896Z,12.60
2022-10-17T20:54:34.539Z,13.20
2022-10-17T20:59:37.736Z,12.32
2022-10-17T21:04:46.327Z,12.52
2022-10-17T21:09:49.632Z,11.60
2022-10-17T21:14:52.193Z,11.25
2022-10-17T21:19:54.830Z,11.43
2022-10-17T21:24:57.446Z,10.95
2022-10-17T21:30:00.057Z,11.02
2022-10-17T21:35:02.718Z,11.15
2022-10-17T21:40:06.174Z,10.48
2022-10-17T21:45:15.358Z,10.70
2022-10-17T21:50:22.705Z,10.27
2022-10-17T21:55:25.302Z,10.13
2022-10-17T22:00:27.907Z,9.90
2022-10-17T22:05:31.543Z,8.93
2022-10-17T22:10:37.184Z,9.52
2022-10-17T22:15:39.783Z,9.15
2022-10-17T22:20:42.323Z,8.82
2022-10-17T22:25:53.588Z,8.68
2022-10-17T22:30:56.210Z,8.80
2022-10-17T22:35:59.205Z,8.57
2022-10-17T22:41:02.300Z,8.73
2022-10-17T22:46:06.953Z,8.75
2022-10-17T22:51:10.009Z,8.13
2022-10-17T22:56:16.982Z,9.00
2022-10-17T23:01:22.299Z,8.63
2022-10-17T23:06:24.974Z,9.05
2022-10-17T23:11:27.600Z,8.73
2022-10-17T23:16:30.311Z,9.35
2022-10-17T23:21:32.858Z,8.82
2022-10-17T23:26:35.413Z,9.00
2022-10-17T23:31:37.996Z,9.45
2022-10-17T23:36:40.571Z,8.68
2022-10-17T23:41:43.155Z,8.68
2022-10-17T23:46:45.791Z,8.77
2022-10-17T23:51:48.404Z,8.38
2022-10-17T23:56:50.965Z,8.68
